createdAt,value
2022-11-13T00:02:13.856Z,7.22
2022-11-13T00:05:00.988Z,6.57
2022-11-13T00:07:48.264Z,3.75
2022-11-13T00:10:36.542Z,5.88
2022-11-13T00:13:29.056Z,4.63
2022-11-13T00:16:18.098Z,5.47
2022-11-13T00:19:05.068Z,6.18
2022-11-13T00:21:52.052Z,4.40
2022-11-13T00:24:39.306Z,6.75
2022-11-13T00:27:27.786Z,5.50
2022-11-13T00:30:19.296Z,6.00
2022-11-13T00:33:07.204Z,8.40
2022-11-13T00:35:54.544Z,5.13
2022-11-13T00:38:43.797Z,4.75
2022-11-13T00:41:31.735Z,3.15
2022-11-13T00:44:20.946Z,4.20
2022-11-13T00:47:11.555Z,3.60
2022-11-13T00:50:03.009Z,7.45
2022-11-13T00:52:53.511Z,5.82
2022-11-13T00:55:42.230Z,4.78
2022-11-13T00:58:30.474Z,4.70
2022-11-13T01:01:20.765Z,3.70
2022-11-13T01:04:07.591Z,4.97
2022-11-13T01:06:55.479Z,5.05
2022-11-13T01:09:42.965Z,3.65
2022-11-13T01:12:29.957Z,4.68
2022-11-13T01:15:17.489Z,3.88
2022-11-13T01:18:06.497Z,5.53
2022-11-13T01:20:53.848Z,4.05
2022-11-13T01:23:41.130Z,3.53
2022-11-13T01:26:29.209Z,3.67
2022-11-13T01:29:16.490Z,4.80
2022-11-13T01:32:03.821Z,3.95
2022-11-13T01:34:52.112Z,3.42
2022-11-13T01:37:39.372Z,4.05
2022-11-13T01:40:26.762Z,2.60
2022-11-13T01:43:21.499Z,5.20
2022-11-13T01:46:11.471Z,4.65
2022-11-13T01:49:01.684Z,3.42
2022-11-13T01:51:51.206Z,2.97
2022-11-13T01:54:40.025Z,2.88
2022-11-13T01:57:27.259Z,4.40
2022-11-13T02:00:14.854Z,4.50
2022-11-13T02:03:01.638Z,4.18
2022-11-13T02:05:48.928Z,4.15
2022-11-13T02:08:37.350Z,3.35
2022-11-13T02:11:24.585Z,3.40
2022-11-13T02:14:11.854Z,5.25
2022-11-13T02:17:01.221Z,2.70
2022-11-13T02:19:50.944Z,2.40
2022-11-13T02:22:40.995Z,3.65
2022-11-13T02:25:30.443Z,6.30
2022-11-13T02:28:17.662Z,5.15
2022-11-13T02:31:08.517Z,4.95
2022-11-13T02:33:55.531Z,3.78
2022-11-13T02:36:42.603Z,5.00
2022-11-13T02:39:29.929Z,6.32
2022-11-13T02:42:18.572Z,2.35
2022-11-13T02:45:06.572Z,5.43
2022-11-13T02:47:53.745Z,4.93
2022-11-13T02:50:47.660Z,6.10
2022-11-13T02:53:34.893Z,3.13
2022-11-13T02:56:21.944Z,4.28
2022-11-13T02:59:10.731Z,4.28
2022-11-13T03:01:58.297Z,3.08
2022-11-13T03:05:10.866Z,4.03
2022-11-13T03:07:53.684Z,2.72
2022-11-13T03:10:40.657Z,3.40
2022-11-13T03:13:27.737Z,4.57
2022-11-13T03:16:17.688Z,4.35
2022-11-13T03:19:04.862Z,3.70
2022-11-13T03:21:52.140Z,4.80
2022-11-13T03:24:39.236Z,4.70
2022-11-13T03:27:26.125Z,4.30
2022-11-13T03:30:13.924Z,6.68
2022-11-13T03:33:02.577Z,7.97
2022-11-13T03:35:49.820Z,6.18
2022-11-13T03:38:37.644Z,5.07
2022-11-13T03:41:26.356Z,6.00
2022-11-13T03:44:13.923Z,4.22
2022-11-13T03:47:01.728Z,5.05
2022-11-13T03:49:50.090Z,2.90
2022-11-13T03:52:37.248Z,5.47
2022-11-13T03:55:24.450Z,2.58
2022-11-13T03:58:11.672Z,4.47
2022-11-13T04:00:58.707Z,4.80
2022-11-13T04:03:45.944Z,4.45
2022-11-13T04:06:34.669Z,3.75
2022-11-13T04:09:21.690Z,5.63
2022-11-13T04:12:09.164Z,5.65
2022-11-13T04:14:56.453Z,6.63
2022-11-13T04:17:43.802Z,4.25
2022-11-13T04:20:31.469Z,5.45
2022-11-13T04:23:19.898Z,5.60
2022-11-13T04:26:07.275Z,4.15
2022-11-13T04:28:54.548Z,4.63
2022-11-13T04:31:41.457Z,7.32
2022-11-13T04:34:28.680Z,6.80
2022-11-13T04:37:15.834Z,5.50
2022-11-13T04:40:04.213Z,4.80
2022-11-13T04:42:50.610Z,4.30
2022-11-13T04:45:37.564Z,7.80
2022-11-13T04:48:25.342Z,7.07
2022-11-13T04:51:12.639Z,6.50
2022-11-13T04:54:00.020Z,5.43
2022-11-13T04:56:48.492Z,6.15
2022-11-13T04:59:37.591Z,5.63
2022-11-13T05:02:24.892Z,4.05
2022-11-13T05:05:12.345Z,9.13
2022-11-13T05:07:59.536Z,4.22
2022-11-13T05:10:46.483Z,3.90
2022-11-13T05:13:35.928Z,5.85
2022-11-13T05:16:23.434Z,5.30
2022-11-13T05:19:10.758Z,5.05
2022-11-13T05:21:57.755Z,3.83
2022-11-13T05:24:44.692Z,4.78
2022-11-13T05:27:32.604Z,4.03
2022-11-13T05:30:21.239Z,5.90
2022-11-13T05:33:08.513Z,5.50
2022-11-13T05:35:55.521Z,4.20
2022-11-13T05:38:42.847Z,6.15
2022-11-13T05:41:29.909Z,5.40
2022-11-13T05:44:17.305Z,4.35
2022-11-13T05:47:05.591Z,3.72
2022-11-13T05:49:52.658Z,4.75
2022-11-13T05:52:39.660Z,3.70
2022-11-13T05:55:26.755Z,6.80
2022-11-13T05:58:13.848Z,5.93
2022-11-13T06:01:07.671Z,5.25
2022-11-13T06:03:56.741Z,4.03
2022-11-13T06:06:43.744Z,4.93
2022-11-13T06:09:31.364Z,8.30
2022-11-13T06:12:18.531Z,5.22
2022-11-13T06:15:05.772Z,5.30
2022-11-13T06:17:52.755Z,6.93
2022-11-13T06:20:41.164Z,5.63
2022-11-13T06:23:28.316Z,5.05
2022-11-13T06:26:16.311Z,5.35
2022-11-13T06:29:04.601Z,4.68
2022-11-13T06:31:51.916Z,8.05
2022-11-13T06:34:38.882Z,7.72
2022-11-13T06:37:29.626Z,12.88
2022-11-13T06:40:19.696Z,8.57
2022-11-13T06:43:07.012Z,5.65
2022-11-13T06:45:54.284Z,9.07
2022-11-13T06:48:41.427Z,6.78
2022-11-13T06:51:29.274Z,6.85
2022-11-13T06:54:18.169Z,6.55
2022-11-13T06:57:05.644Z,7.63
2022-11-13T06:59:52.872Z,8.13
2022-11-13T07:02:39.765Z,6.72
2022-11-13T07:05:26.845Z,6.90
2022-11-13T07:08:14.478Z,5.55
2022-11-13T07:11:03.139Z,6.10
2022-11-13T07:13:50.244Z,5.05
2022-11-13T07:17:04.339Z,8.35
2022-11-13T07:19:44.736Z,4.78
2022-11-13T07:22:32.169Z,7.30
2022-11-13T07:25:19.729Z,6.45
2022-11-13T07:28:08.602Z,6.35
2022-11-13T07:30:55.542Z,5.85
2022-11-13T07:33:43.179Z,6.57
2022-11-13T07:36:30.666Z,5.97
2022-11-13T07:39:18.023Z,7.93
2022-11-13T07:42:05.455Z,6.00
2022-11-13T07:44:55.293Z,9.75
2022-11-13T07:47:43.321Z,6.22
2022-11-13T07:50:31.498Z,7.68
2022-11-13T07:53:19.248Z,8.23
2022-11-13T07:56:06.411Z,5.60
2022-11-13T07:58:53.581Z,7.30
2022-11-13T08:01:42.340Z,9.82
2022-11-13T08:04:29.517Z,11.57
2022-11-13T08:07:16.609Z,9.50
2022-11-13T08:10:03.862Z,11.07
2022-11-13T08:12:50.852Z,8.07
2022-11-13T08:15:38.085Z,11.13
2022-11-13T08:18:26.881Z,9.18
2022-11-13T08:21:15.190Z,13.27
2022-11-13T08:24:02.556Z,11.50
2022-11-13T08:26:49.417Z,10.27
2022-11-13T08:29:38.122Z,7.40
2022-11-13T08:32:25.263Z,6.47
2022-11-13T08:35:18.989Z,6.18
2022-11-13T08:38:07.632Z,9.05
2022-11-13T08:40:54.887Z,11.18
2022-11-13T08:43:41.988Z,7.05
2022-11-13T08:46:29.109Z,8.02
2022-11-13T08:49:16.201Z,6.25
2022-11-13T08:52:05.219Z,9.32
2022-11-13T08:54:52.559Z,9.48
2022-11-13T08:57:41.021Z,11.88
2022-11-13T09:00:28.104Z,9.13
2022-11-13T09:03:15.396Z,7.78
2022-11-13T09:06:02.544Z,10.70
2022-11-13T09:08:51.560Z,6.05
2022-11-13T09:11:41.358Z,8.85
2022-11-13T09:14:30.702Z,10.75
2022-11-13T09:17:21.043Z,10.93
2022-11-13T09:20:13.546Z,8.68
2022-11-13T09:23:01.995Z,12.48
2022-11-13T09:25:50.752Z,14.88
2022-11-13T09:28:38.252Z,12.63
2022-11-13T09:31:25.479Z,11.57
2022-11-13T09:34:12.804Z,14.20
2022-11-13T09:37:00.084Z,10.98
2022-11-13T09:39:47.035Z,10.70
2022-11-13T09:42:36.697Z,9.68
2022-11-13T09:45:24.255Z,12.15
2022-11-13T09:48:15.203Z,9.57
2022-11-13T09:51:05.896Z,9.55
2022-11-13T09:53:53.108Z,9.88
2022-11-13T09:56:42.642Z,8.40
2022-11-13T09:59:33.498Z,11.20
2022-11-13T10:02:23.792Z,10.13
2022-11-13T10:05:15.846Z,7.90
2022-11-13T10:08:06.972Z,6.25
2022-11-13T10:10:57.995Z,8.30
2022-11-13T10:13:46.454Z,11.00
2022-11-13T10:16:36.519Z,6.93
2022-11-13T10:19:34.219Z,4.63
2022-11-13T10:22:32.658Z,5.97
2022-11-13T10:25:22.409Z,6.85
2022-11-13T10:28:43.168Z,4.03
2022-11-13T10:31:21.114Z,4.18
2022-11-13T10:34:09.931Z,4.75
2022-11-13T10:37:02.467Z,4.50
2022-11-13T10:39:50.244Z,5.10
2022-11-13T10:42:39.863Z,4.20
2022-11-13T10:45:27.216Z,3.47
2022-11-13T10:48:24.681Z,2.85
2022-11-13T10:51:22.828Z,2.97
2022-11-13T10:54:22.343Z,3.95
2022-11-13T10:57:21.149Z,4.07
2022-11-13T11:00:21.199Z,3.70
2022-11-13T11:03:10.055Z,6.95
2022-11-13T11:05:57.844Z,6.18
2022-11-13T11:08:46.738Z,7.88
2022-11-13T11:11:51.528Z,5.47
2022-11-13T11:14:40.998Z,6.65
2022-11-13T11:17:30.574Z,7.30
2022-11-13T11:20:26.055Z,9.15
2022-11-13T11:23:18.529Z,15.57
2022-11-13T11:26:10.406Z,8.02
2022-11-13T11:29:03.978Z,9.65
2022-11-13T11:31:53.045Z,9.98
2022-11-13T11:34:42.609Z,6.75
2022-11-13T11:37:33.201Z,7.32
2022-11-13T11:40:24.042Z,8.55
2022-11-13T11:43:18.505Z,8.35
2022-11-13T11:46:05.575Z,13.57
2022-11-13T11:48:52.845Z,5.05
2022-11-13T11:51:46.424Z,8.02
2022-11-13T11:54:42.501Z,5.65
2022-11-13T11:57:38.877Z,7.05
2022-11-13T12:00:29.139Z,3.33
2022-11-13T12:03:30.810Z,8.50
2022-11-13T12:06:21.401Z,8.20
2022-11-13T12:09:11.356Z,6.10
2022-11-13T12:12:02.037Z,4.93
2022-11-13T12:14:52.635Z,5.88
2022-11-13T12:17:45.759Z,5.70
2022-11-13T12:20:37.201Z,5.35
2022-11-13T12:23:30.967Z,6.68
2022-11-13T12:26:21.845Z,4.78
2022-11-13T12:29:14.831Z,6.90
2022-11-13T12:32:08.887Z,5.30
2022-11-13T12:34:58.671Z,6.53
2022-11-13T12:37:49.725Z,9.85
2022-11-13T12:40:44.253Z,5.07
2022-11-13T12:43:46.405Z,7.68
2022-11-13T12:46:37.682Z,9.23
2022-11-13T12:49:28.231Z,4.28
2022-11-13T12:52:22.822Z,8.23
2022-11-13T12:55:26.181Z,8.90
2022-11-13T12:58:20.600Z,5.43
2022-11-13T13:01:16.055Z,6.82
2022-11-13T13:04:18.278Z,7.70
2022-11-13T13:07:10.478Z,8.88
2022-11-13T13:10:07.179Z,8.65
2022-11-13T13:12:58.385Z,8.02
2022-11-13T13:15:46.637Z,11.48
2022-11-13T13:18:34.823Z,7.05
2022-11-13T13:21:23.194Z,13.20
2022-11-13T13:24:11.465Z,5.65
2022-11-13T13:27:01.156Z,10.30
2022-11-13T13:29:48.369Z,5.90
2022-11-13T13:32:39.124Z,8.07
2022-11-13T13:35:29.352Z,12.50
2022-11-13T13:38:18.530Z,10.90
2022-11-13T13:41:16.424Z,12.30
2022-11-13T13:44:18.265Z,11.35
2022-11-13T13:47:12.267Z,10.27
2022-11-13T13:49:59.759Z,6.35
2022-11-13T13:52:51.175Z,5.95
2022-11-13T13:55:47.332Z,8.55
2022-11-13T13:58:35.972Z,11.07
2022-11-13T14:01:29.942Z,12.23
2022-11-13T14:04:20.011Z,4.95
2022-11-13T14:07:19.960Z,9.85
2022-11-13T14:10:08.898Z,7.45
2022-11-13T14:12:57.446Z,9.25
2022-11-13T14:15:44.736Z,6.25
2022-11-13T14:18:32.192Z,9.95
2022-11-13T14:21:23.025Z,9.10
2022-11-13T14:24:12.513Z,9.68
2022-11-13T14:27:00.542Z,8.55
2022-11-13T14:29:48.737Z,13.35
2022-11-13T14:32:45.744Z,10.88
2022-11-13T14:35:34.520Z,9.73
2022-11-13T14:38:24.721Z,10.02
2022-11-13T14:41:21.119Z,6.45
2022-11-13T14:44:08.540Z,10.85
2022-11-13T14:47:00.928Z,11.75
2022-11-13T14:49:48.011Z,13.45
2022-11-13T14:52:34.991Z,11.60
2022-11-13T14:55:23.968Z,13.30
2022-11-13T14:58:13.744Z,10.95
2022-11-13T15:01:01.669Z,9.55
2022-11-13T15:03:50.308Z,10.32
2022-11-13T15:06:39.177Z,10.65
2022-11-13T15:09:27.190Z,13.32
2022-11-13T15:12:15.557Z,9.98
2022-11-13T15:15:03.103Z,5.80
2022-11-13T15:17:51.571Z,6.20
2022-11-13T15:20:38.572Z,7.97
2022-11-13T15:23:29.436Z,14.02
2022-11-13T15:26:16.556Z,15.40
2022-11-13T15:29:05.053Z,9.35
2022-11-13T15:31:52.122Z,14.25
2022-11-13T15:34:39.454Z,7.38
2022-11-13T15:37:26.685Z,9.48
2022-11-13T15:40:14.519Z,10.35
2022-11-13T15:43:02.141Z,8.10
2022-11-13T15:45:50.772Z,13.35
2022-11-13T15:48:37.953Z,11.32
2022-11-13T15:51:26.676Z,14.55
2022-11-13T15:54:16.431Z,12.95
2022-11-13T15:57:03.803Z,13.48
2022-11-13T15:59:51.261Z,11.57
2022-11-13T16:02:40.070Z,8.90
2022-11-13T16:05:29.463Z,12.57
2022-11-13T16:08:17.454Z,7.15
2022-11-13T16:11:04.641Z,9.73
2022-11-13T16:13:51.807Z,13.93
2022-11-13T16:16:40.786Z,14.57
2022-11-13T16:19:29.222Z,11.90
2022-11-13T16:22:20.116Z,10.48
2022-11-13T16:25:08.557Z,12.63
2022-11-13T16:27:55.664Z,9.60
2022-11-13T16:30:42.850Z,13.60
2022-11-13T16:33:32.273Z,10.27
2022-11-13T16:36:21.685Z,10.50
2022-11-13T16:39:11.463Z,10.68
2022-11-13T16:41:58.904Z,12.07
2022-11-13T16:44:45.987Z,15.07
2022-11-13T16:47:33.559Z,7.72
2022-11-13T16:50:23.681Z,10.52
2022-11-13T16:53:12.955Z,9.15
2022-11-13T16:56:00.024Z,13.25
2022-11-13T16:58:46.998Z,12.35
2022-11-13T17:01:34.303Z,14.10
2022-11-13T17:04:21.827Z,14.52
2022-11-13T17:07:09.533Z,12.77
2022-11-13T17:10:24.136Z,14.88
2022-11-13T17:13:05.627Z,16.20
2022-11-13T17:15:52.872Z,19.80
2022-11-13T17:18:40.208Z,16.00
2022-11-13T17:21:30.134Z,20.45
2022-11-13T17:24:17.434Z,30.63
2022-11-13T17:27:06.460Z,29.75
2022-11-13T17:29:53.915Z,31.63
2022-11-13T17:32:40.991Z,30.92
2022-11-13T17:35:28.342Z,26.63
2022-11-13T17:38:15.944Z,27.33
2022-11-13T17:41:05.827Z,26.38
2022-11-13T17:43:58.258Z,24.13
2022-11-13T17:46:49.304Z,23.45
2022-11-13T17:49:36.591Z,28.17
2022-11-13T17:52:23.880Z,26.38
2022-11-13T17:55:13.170Z,23.95
2022-11-13T17:58:01.224Z,26.20
2022-11-13T18:00:49.907Z,23.80
2022-11-13T18:03:37.221Z,22.00
2022-11-13T18:06:25.344Z,22.63
2022-11-13T18:09:12.410Z,21.73
2022-11-13T18:11:59.641Z,10.93
2022-11-13T18:14:52.287Z,15.80
2022-11-13T18:17:41.166Z,20.25
2022-11-13T18:20:28.962Z,14.85
2022-11-13T18:23:16.160Z,17.33
2022-11-13T18:26:08.371Z,18.17
2022-11-13T18:28:55.298Z,24.23
2022-11-13T18:31:42.519Z,18.35
2022-11-13T18:34:31.133Z,13.60
2022-11-13T18:37:18.468Z,13.15
2022-11-13T18:40:05.686Z,15.07
2022-11-13T18:42:53.404Z,15.95
2022-11-13T18:45:40.428Z,20.67
2022-11-13T18:48:31.611Z,18.55
2022-11-13T18:51:21.901Z,14.85
2022-11-13T18:54:11.752Z,20.08
2022-11-13T18:56:58.810Z,19.48
2022-11-13T18:59:45.911Z,18.67
2022-11-13T19:02:33.464Z,16.85
2022-11-13T19:05:20.766Z,16.05
2022-11-13T19:08:09.255Z,22.17
2022-11-13T19:10:56.183Z,30.50
2022-11-13T19:13:43.984Z,22.88
2022-11-13T19:16:34.230Z,28.35
2022-11-13T19:19:22.556Z,24.63
2022-11-13T19:22:09.875Z,18.05
2022-11-13T19:24:58.570Z,17.65
2022-11-13T19:27:45.652Z,16.52
2022-11-13T19:30:32.751Z,25.15
2022-11-13T19:33:19.760Z,24.70
2022-11-13T19:36:08.690Z,27.73
2022-11-13T19:38:57.187Z,20.20
2022-11-13T19:41:45.393Z,19.02
2022-11-13T19:44:32.638Z,13.68
2022-11-13T19:47:20.197Z,13.10
2022-11-13T19:50:07.977Z,14.13
2022-11-13T19:52:55.691Z,12.77
2022-11-13T19:55:43.141Z,12.02
2022-11-13T19:58:31.943Z,9.32
2022-11-13T20:01:20.578Z,16.55
2022-11-13T20:04:07.626Z,13.10
2022-11-13T20:06:54.779Z,7.63
2022-11-13T20:09:42.072Z,13.95
2022-11-13T20:12:29.651Z,6.50
2022-11-13T20:15:18.168Z,6.60
2022-11-13T20:18:06.040Z,4.93
2022-11-13T20:20:54.970Z,9.10
2022-11-13T20:23:42.470Z,8.10
2022-11-13T20:26:29.972Z,5.30
2022-11-13T20:29:17.430Z,22.13
2022-11-13T20:32:06.243Z,4.05
2022-11-13T20:34:53.720Z,5.53
2022-11-13T20:37:41.216Z,4.00
2022-11-13T20:40:28.415Z,7.75
2022-11-13T20:43:15.419Z,15.30
2022-11-13T20:46:03.281Z,2.40
2022-11-13T20:48:52.244Z,2.60
2022-11-13T20:51:39.691Z,3.65
2022-11-13T20:54:27.466Z,3.67
2022-11-13T20:57:14.667Z,4.80
2022-11-13T21:00:01.783Z,6.97
2022-11-13T21:02:48.656Z,5.97
2022-11-13T21:05:37.700Z,4.93
2022-11-13T21:08:24.926Z,4.57
2022-11-13T21:11:15.137Z,2.75
2022-11-13T21:14:02.089Z,3.22
2022-11-13T21:16:49.379Z,5.68
2022-11-13T21:19:36.436Z,1.85
2022-11-13T21:22:24.945Z,3.40
2022-11-13T21:25:11.921Z,2.63
2022-11-13T21:27:59.204Z,3.95
2022-11-13T21:30:46.226Z,3.15
2022-11-13T21:33:37.225Z,2.90
2022-11-13T21:36:25.263Z,3.83
2022-11-13T21:39:13.647Z,9.45
2022-11-13T21:42:01.128Z,4.75
2022-11-13T21:44:48.313Z,4.03
2022-11-13T21:47:35.720Z,5.30
2022-11-13T21:50:23.199Z,2.75
2022-11-13T21:53:10.623Z,2.00
2022-11-13T21:55:59.005Z,4.18
2022-11-13T21:58:46.439Z,2.40
2022-11-13T22:01:38.158Z,3.28
2022-11-13T22:04:26.372Z,9.18
2022-11-13T22:07:14.363Z,6.95
2022-11-13T22:10:06.925Z,4.50
2022-11-13T22:12:57.042Z,4.22
2022-11-13T22:15:44.302Z,6.03
2022-11-13T22:18:31.626Z,3.95
2022-11-13T22:21:18.986Z,2.90
2022-11-13T22:24:06.387Z,6.70
2022-11-13T22:26:53.704Z,5.97
2022-11-13T22:29:42.491Z,7.25
2022-11-13T22:32:30.664Z,7.03
2022-11-13T22:35:18.137Z,4.63
2022-11-13T22:38:05.627Z,6.28
2022-11-13T22:40:53.083Z,4.15
2022-11-13T22:43:42.127Z,5.07
2022-11-13T22:46:31.828Z,3.10
2022-11-13T22:49:19.227Z,7.78
2022-11-13T22:52:06.297Z,3.47
2022-11-13T22:54:53.759Z,5.25
2022-11-13T22:57:40.748Z,5.63
2022-11-13T23:00:27.642Z,3.25
2022-11-13T23:03:16.314Z,10.45
2022-11-13T23:06:03.823Z,11.27
2022-11-13T23:08:51.151Z,26.23
2022-11-13T23:11:39.233Z,13.88
2022-11-13T23:14:26.358Z,8.63
2022-11-13T23:17:13.564Z,9.80
2022-11-13T23:20:01.947Z,4.47
2022-11-13T23:22:48.892Z,13.32
2022-11-13T23:25:36.224Z,8.95
2022-11-13T23:28:23.381Z,8.27
2022-11-13T23:31:10.409Z,7.55
2022-11-13T23:33:57.675Z,7.50
2022-11-13T23:36:46.560Z,8.60
2022-11-13T23:39:33.647Z,11.55
2022-11-13T23:42:39.218Z,8.55
2022-11-13T23:45:27.880Z,4.55
2022-11-13T23:48:15.299Z,7.20
2022-11-13T23:51:02.603Z,4.57
2022-11-13T23:53:51.073Z,5.57
2022-11-13T23:56:38.380Z,5.22
2022-11-13T23:59:25.424Z,7.10
